sensor_id;sensor_type;location;lat;lon;timestamp;P1;durP1;ratioP1;P2;durP2;ratioP2
3299;SDS011;1662;49.310;8.134;2024-03-08T00:01:06;19.80;;;15.33;;
3299;SDS011;1662;49.310;8.134;2024-03-08T00:03:31;23.50;;;17.03;;
3299;SDS011;1662;49.310;8.134;2024-03-08T00:05:57;24.10;;;16.50;;
3299;SDS011;1662;49.310;8.134;2024-03-08T00:08:23;26.40;;;18.00;;
3299;SDS011;1662;49.310;8.134;2024-03-08T00:10:53;22.23;;;16.70;;
3299;SDS011;1662;49.310;8.134;2024-03-08T00:13:19;25.70;;;18.80;;
3299;SDS011;1662;49.310;8.134;2024-03-08T00:15:45;23.10;;;16.27;;
3299;SDS011;1662;49.310;8.134;2024-03-08T00:18:10;23.53;;;17.47;;
3299;SDS011;1662;49.310;8.134;2024-03-08T00:20:36;22.50;;;16.83;;
3299;SDS011;1662;49.310;8.134;2024-03-08T00:23:02;23.40;;;19.00;;
3299;SDS011;1662;49.310;8.134;2024-03-08T00:25:28;21.63;;;16.43;;
3299;SDS011;1662;49.310;8.134;2024-03-08T00:27:54;23.93;;;18.20;;
3299;SDS011;1662;49.310;8.134;2024-03-08T00:30:21;23.30;;;19.00;;
3299;SDS011;1662;49.310;8.134;2024-03-08T00:32:50;23.80;;;18.10;;
3299;SDS011;1662;49.310;8.134;2024-03-08T00:35:16;22.30;;;18.33;;
3299;SDS011;1662;49.310;8.134;2024-03-08T00:37:41;22.10;;;18.37;;
3299;SDS011;1662;49.310;8.134;2024-03-08T00:40:07;27.80;;;19.67;;
3299;SDS011;1662;49.310;8.134;2024-03-08T00:42:36;24.30;;;19.60;;
3299;SDS011;1662;49.310;8.134;2024-03-08T00:45:06;23.33;;;18.33;;
3299;SDS011;1662;49.310;8.134;2024-03-08T00:47:32;27.10;;;19.30;;
3299;SDS011;1662;49.310;8.134;2024-03-08T00:50:00;28.17;;;20.17;;
3299;SDS011;1662;49.310;8.134;2024-03-08T00:52:28;27.53;;;19.53;;
3299;SDS011;1662;49.310;8.134;2024-03-08T00:54:54;23.63;;;18.70;;
3299;SDS011;1662;49.310;8.134;2024-03-08T00:57:22;25.40;;;20.03;;
3299;SDS011;1662;49.310;8.134;2024-03-08T00:59:48;29.73;;;21.43;;
3299;SDS011;1662;49.310;8.134;2024-03-08T01:02:17;29.30;;;20.07;;
3299;SDS011;1662;49.310;8.134;2024-03-08T01:04:44;25.50;;;20.03;;
3299;SDS011;1662;49.310;8.134;2024-03-08T01:07:09;25.27;;;18.90;;
3299;SDS011;1662;49.310;8.134;2024-03-08T01:09:35;25.63;;;19.17;;
3299;SDS011;1662;49.310;8.134;2024-03-08T01:12:01;24.33;;;18.77;;
3299;SDS011;1662;49.310;8.134;2024-03-08T01:14:26;26.30;;;20.00;;
3299;SDS011;1662;49.310;8.134;2024-03-08T01:16:53;24.70;;;19.03;;
3299;SDS011;1662;49.310;8.134;2024-03-08T01:19:20;24.17;;;18.23;;
3299;SDS011;1662;49.310;8.134;2024-03-08T01:21:45;26.13;;;18.33;;
3299;SDS011;1662;49.310;8.134;2024-03-08T01:24:11;28.40;;;20.20;;
3299;SDS011;1662;49.310;8.134;2024-03-08T01:26:40;23.33;;;18.90;;
3299;SDS011;1662;49.310;8.134;2024-03-08T01:29:05;26.33;;;18.83;;
3299;SDS011;1662;49.310;8.134;2024-03-08T01:31:31;24.73;;;19.57;;
3299;SDS011;1662;49.310;8.134;2024-03-08T01:33:57;29.30;;;20.20;;
3299;SDS011;1662;49.310;8.134;2024-03-08T01:36:23;23.97;;;17.57;;
3299;SDS011;1662;49.310;8.134;2024-03-08T01:38:52;29.60;;;21.03;;
3299;SDS011;1662;49.310;8.134;2024-03-08T01:41:17;28.70;;;20.00;;
3299;SDS011;1662;49.310;8.134;2024-03-08T01:43:44;26.37;;;19.97;;
3299;SDS011;1662;49.310;8.134;2024-03-08T01:46:10;28.75;;;20.83;;
3299;SDS011;1662;49.310;8.134;2024-03-08T01:48:40;27.50;;;20.77;;
3299;SDS011;1662;49.310;8.134;2024-03-08T01:51:06;31.20;;;20.47;;
3299;SDS011;1662;49.310;8.134;2024-03-08T01:53:32;30.60;;;22.47;;
3299;SDS011;1662;49.310;8.134;2024-03-08T01:55:59;25.70;;;20.70;;
3299;SDS011;1662;49.310;8.134;2024-03-08T01:58:26;28.23;;;21.43;;
3299;SDS011;1662;49.310;8.134;2024-03-08T02:00:53;28.77;;;20.57;;
3299;SDS011;1662;49.310;8.134;2024-03-08T02:03:28;27.40;;;20.50;;
3299;SDS011;1662;49.310;8.134;2024-03-08T02:05:55;28.42;;;21.65;;
3299;SDS011;1662;49.310;8.134;2024-03-08T02:08:21;26.20;;;20.40;;
3299;SDS011;1662;49.310;8.134;2024-03-08T02:10:49;29.77;;;20.95;;
3299;SDS011;1662;49.310;8.134;2024-03-08T02:13:15;30.90;;;21.90;;
3299;SDS011;1662;49.310;8.134;2024-03-08T02:18:20;30.05;;;20.25;;
3299;SDS011;1662;49.310;8.134;2024-03-08T02:20:50;28.55;;;21.75;;
3299;SDS011;1662;49.310;8.134;2024-03-08T02:23:18;28.77;;;20.42;;
3299;SDS011;1662;49.310;8.134;2024-03-08T02:25:49;28.52;;;20.15;;
3299;SDS011;1662;49.310;8.134;2024-03-08T02:28:16;30.42;;;21.58;;
3299;SDS011;1662;49.310;8.134;2024-03-08T02:30:44;28.55;;;20.08;;
3299;SDS011;1662;49.310;8.134;2024-03-08T02:33:13;30.25;;;20.77;;
3299;SDS011;1662;49.310;8.134;2024-03-08T02:35:43;27.67;;;21.35;;
3299;SDS011;1662;49.310;8.134;2024-03-08T02:38:18;25.48;;;18.92;;
3299;SDS011;1662;49.310;8.134;2024-03-08T02:40:45;29.30;;;20.33;;
3299;SDS011;1662;49.310;8.134;2024-03-08T02:43:12;26.05;;;18.85;;
3299;SDS011;1662;49.310;8.134;2024-03-08T02:45:42;28.73;;;21.00;;
3299;SDS011;1662;49.310;8.134;2024-03-08T02:48:09;28.10;;;19.00;;
3299;SDS011;1662;49.310;8.134;2024-03-08T02:50:34;26.90;;;19.20;;
3299;SDS011;1662;49.310;8.134;2024-03-08T02:53:01;30.00;;;20.30;;
3299;SDS011;1662;49.310;8.134;2024-03-08T02:55:27;26.53;;;19.73;;
3299;SDS011;1662;49.310;8.134;2024-03-08T02:57:52;28.90;;;21.73;;
3299;SDS011;1662;49.310;8.134;2024-03-08T03:00:21;31.50;;;21.35;;
3299;SDS011;1662;49.310;8.134;2024-03-08T03:02:51;27.70;;;20.23;;
3299;SDS011;1662;49.310;8.134;2024-03-08T03:05:20;29.95;;;21.50;;
3299;SDS011;1662;49.310;8.134;2024-03-08T03:07:46;28.87;;;21.07;;
3299;SDS011;1662;49.310;8.134;2024-03-08T03:10:12;26.70;;;19.70;;
3299;SDS011;1662;49.310;8.134;2024-03-08T03:12:40;26.97;;;20.30;;
3299;SDS011;1662;49.310;8.134;2024-03-08T03:15:05;29.23;;;22.10;;
3299;SDS011;1662;49.310;8.134;2024-03-08T03:17:31;26.10;;;20.50;;
3299;SDS011;1662;49.310;8.134;2024-03-08T03:19:57;27.37;;;20.20;;
3299;SDS011;1662;49.310;8.134;2024-03-08T03:22:23;23.70;;;19.10;;
3299;SDS011;1662;49.310;8.134;2024-03-08T03:24:50;26.33;;;20.15;;
3299;SDS011;1662;49.310;8.134;2024-03-08T03:27:16;25.98;;;18.70;;
3299;SDS011;1662;49.310;8.134;2024-03-08T03:29:43;29.88;;;19.88;;
3299;SDS011;1662;49.310;8.134;2024-03-08T03:32:12;30.75;;;19.67;;
3299;SDS011;1662;49.310;8.134;2024-03-08T03:34:38;26.90;;;19.52;;
3299;SDS011;1662;49.310;8.134;2024-03-08T03:37:09;25.25;;;19.70;;
3299;SDS011;1662;49.310;8.134;2024-03-08T03:39:37;25.92;;;20.13;;
3299;SDS011;1662;49.310;8.134;2024-03-08T03:42:14;31.77;;;20.70;;
3299;SDS011;1662;49.310;8.134;2024-03-08T03:44:40;30.30;;;21.50;;
3299;SDS011;1662;49.310;8.134;2024-03-08T03:47:08;31.55;;;22.45;;
3299;SDS011;1662;49.310;8.134;2024-03-08T03:49:34;28.30;;;21.13;;
3299;SDS011;1662;49.310;8.134;2024-03-08T03:52:00;29.40;;;21.37;;
3299;SDS011;1662;49.310;8.134;2024-03-08T03:54:25;26.10;;;19.63;;
3299;SDS011;1662;49.310;8.134;2024-03-08T03:56:51;27.50;;;20.50;;
3299;SDS011;1662;49.310;8.134;2024-03-08T03:59:18;30.77;;;19.70;;
3299;SDS011;1662;49.310;8.134;2024-03-08T04:01:44;27.53;;;20.37;;
3299;SDS011;1662;49.310;8.134;2024-03-08T04:04:09;27.17;;;19.87;;
3299;SDS011;1662;49.310;8.134;2024-03-08T04:06:38;28.00;;;20.05;;
3299;SDS011;1662;49.310;8.134;2024-03-08T04:09:03;29.90;;;22.27;;
3299;SDS011;1662;49.310;8.134;2024-03-08T04:11:29;32.30;;;20.70;;
3299;SDS011;1662;49.310;8.134;2024-03-08T04:13:55;28.50;;;20.63;;
3299;SDS011;1662;49.310;8.134;2024-03-08T04:16:21;28.57;;;21.40;;
3299;SDS011;1662;49.310;8.134;2024-03-08T04:18:46;25.20;;;19.73;;
3299;SDS011;1662;49.310;8.134;2024-03-08T04:21:15;30.23;;;21.35;;
3299;SDS011;1662;49.310;8.134;2024-03-08T04:23:41;32.10;;;22.53;;
3299;SDS011;1662;49.310;8.134;2024-03-08T04:26:06;28.43;;;21.40;;
3299;SDS011;1662;49.310;8.134;2024-03-08T04:28:32;26.27;;;19.13;;
3299;SDS011;1662;49.310;8.134;2024-03-08T04:30:58;32.70;;;22.20;;
3299;SDS011;1662;49.310;8.134;2024-03-08T04:33:25;29.20;;;20.00;;
3299;SDS011;1662;49.310;8.134;2024-03-08T04:35:51;30.50;;;21.02;;
3299;SDS011;1662;49.310;8.134;2024-03-08T04:38:18;28.70;;;21.05;;
3299;SDS011;1662;49.310;8.134;2024-03-08T04:40:46;27.15;;;20.15;;
3299;SDS011;1662;49.310;8.134;2024-03-08T04:43:12;24.00;;;17.60;;
3299;SDS011;1662;49.310;8.134;2024-03-08T04:45:37;27.80;;;18.87;;
3299;SDS011;1662;49.310;8.134;2024-03-08T04:48:04;29.80;;;20.30;;
3299;SDS011;1662;49.310;8.134;2024-03-08T04:50:30;28.87;;;19.20;;
3299;SDS011;1662;49.310;8.134;2024-03-08T04:52:55;27.40;;;18.73;;
3299;SDS011;1662;49.310;8.134;2024-03-08T04:55:21;27.40;;;19.87;;
3299;SDS011;1662;49.310;8.134;2024-03-08T04:57:52;34.92;;;20.13;;
3299;SDS011;1662;49.310;8.134;2024-03-08T05:00:18;27.97;;;20.70;;
3299;SDS011;1662;49.310;8.134;2024-03-08T05:02:44;30.63;;;21.07;;
3299;SDS011;1662;49.310;8.134;2024-03-08T05:05:10;28.47;;;20.10;;
3299;SDS011;1662;49.310;8.134;2024-03-08T05:07:39;26.77;;;19.73;;
3299;SDS011;1662;49.310;8.134;2024-03-08T05:10:05;29.20;;;19.85;;
3299;SDS011;1662;49.310;8.134;2024-03-08T05:12:31;28.38;;;20.20;;
3299;SDS011;1662;49.310;8.134;2024-03-08T05:15:00;31.10;;;21.23;;
3299;SDS011;1662;49.310;8.134;2024-03-08T05:17:30;30.55;;;22.20;;
3299;SDS011;1662;49.310;8.134;2024-03-08T05:19:55;28.83;;;20.60;;
3299;SDS011;1662;49.310;8.134;2024-03-08T05:22:21;30.37;;;20.93;;
3299;SDS011;1662;49.310;8.134;2024-03-08T05:24:47;32.17;;;23.35;;
3299;SDS011;1662;49.310;8.134;2024-03-08T05:27:13;30.50;;;20.60;;
3299;SDS011;1662;49.310;8.134;2024-03-08T05:29:38;29.13;;;21.10;;
3299;SDS011;1662;49.310;8.134;2024-03-08T05:32:04;33.43;;;22.17;;
3299;SDS011;1662;49.310;8.134;2024-03-08T05:34:30;31.73;;;21.90;;
3299;SDS011;1662;49.310;8.134;2024-03-08T05:36:55;30.53;;;21.67;;
3299;SDS011;1662;49.310;8.134;2024-03-08T05:39:23;34.03;;;22.13;;
3299;SDS011;1662;49.310;8.134;2024-03-08T05:41:49;29.10;;;19.50;;
3299;SDS011;1662;49.310;8.134;2024-03-08T05:44:15;30.63;;;21.02;;
3299;SDS011;1662;49.310;8.134;2024-03-08T05:46:44;31.80;;;21.50;;
3299;SDS011;1662;49.310;8.134;2024-03-08T05:49:11;29.70;;;19.70;;
3299;SDS011;1662;49.310;8.134;2024-03-08T05:51:37;31.23;;;21.60;;
3299;SDS011;1662;49.310;8.134;2024-03-08T05:54:09;28.92;;;20.05;;
3299;SDS011;1662;49.310;8.134;2024-03-08T05:56:37;30.00;;;21.25;;
3299;SDS011;1662;49.310;8.134;2024-03-08T05:59:03;30.95;;;21.60;;
3299;SDS011;1662;49.310;8.134;2024-03-08T06:01:29;28.07;;;20.73;;
3299;SDS011;1662;49.310;8.134;2024-03-08T06:03:56;28.73;;;21.50;;
3299;SDS011;1662;49.310;8.134;2024-03-08T06:06:22;30.52;;;20.50;;
3299;SDS011;1662;49.310;8.134;2024-03-08T06:08:49;30.60;;;21.52;;
3299;SDS011;1662;49.310;8.134;2024-03-08T06:11:15;30.83;;;21.15;;
3299;SDS011;1662;49.310;8.134;2024-03-08T06:13:48;33.00;;;20.80;;
3299;SDS011;1662;49.310;8.134;2024-03-08T06:16:15;28.83;;;21.77;;
3299;SDS011;1662;49.310;8.134;2024-03-08T06:18:40;29.15;;;20.73;;
3299;SDS011;1662;49.310;8.134;2024-03-08T06:21:07;31.00;;;20.90;;
3299;SDS011;1662;49.310;8.134;2024-03-08T06:23:41;30.95;;;20.98;;
3299;SDS011;1662;49.310;8.134;2024-03-08T06:26:12;32.27;;;21.53;;
3299;SDS011;1662;49.310;8.134;2024-03-08T06:28:38;31.30;;;21.92;;
3299;SDS011;1662;49.310;8.134;2024-03-08T06:31:03;28.07;;;21.10;;
3299;SDS011;1662;49.310;8.134;2024-03-08T06:33:29;31.60;;;21.23;;
3299;SDS011;1662;49.310;8.134;2024-03-08T06:35:57;30.10;;;20.13;;
3299;SDS011;1662;49.310;8.134;2024-03-08T06:38:26;35.57;;;21.23;;
3299;SDS011;1662;49.310;8.134;2024-03-08T06:40:52;33.22;;;19.95;;
3299;SDS011;1662;49.310;8.134;2024-03-08T06:43:19;31.15;;;21.55;;
3299;SDS011;1662;49.310;8.134;2024-03-08T06:45:45;35.17;;;21.70;;
3299;SDS011;1662;49.310;8.134;2024-03-08T06:48:14;33.03;;;22.42;;
3299;SDS011;1662;49.310;8.134;2024-03-08T06:50:42;29.13;;;19.75;;
3299;SDS011;1662;49.310;8.134;2024-03-08T06:53:11;27.00;;;19.27;;
3299;SDS011;1662;49.310;8.134;2024-03-08T06:55:38;29.83;;;21.63;;
3299;SDS011;1662;49.310;8.134;2024-03-08T06:58:04;33.00;;;21.47;;
3299;SDS011;1662;49.310;8.134;2024-03-08T07:00:30;32.20;;;21.67;;
3299;SDS011;1662;49.310;8.134;2024-03-08T07:02:56;27.43;;;18.90;;
3299;SDS011;1662;49.310;8.134;2024-03-08T07:05:26;29.42;;;21.35;;
3299;SDS011;1662;49.310;8.134;2024-03-08T07:07:55;30.80;;;22.08;;
3299;SDS011;1662;49.310;8.134;2024-03-08T07:10:21;30.02;;;19.98;;
3299;SDS011;1662;49.310;8.134;2024-03-08T07:12:50;26.73;;;18.70;;
3299;SDS011;1662;49.310;8.134;2024-03-08T07:15:16;25.00;;;18.17;;
3299;SDS011;1662;49.310;8.134;2024-03-08T07:17:44;27.13;;;20.33;;
3299;SDS011;1662;49.310;8.134;2024-03-08T07:20:10;29.98;;;19.60;;
3299;SDS011;1662;49.310;8.134;2024-03-08T07:22:40;28.70;;;20.52;;
3299;SDS011;1662;49.310;8.134;2024-03-08T07:25:07;29.30;;;20.70;;
3299;SDS011;1662;49.310;8.134;2024-03-08T07:27:44;30.13;;;20.50;;
3299;SDS011;1662;49.310;8.134;2024-03-08T07:30:11;29.80;;;20.13;;
3299;SDS011;1662;49.310;8.134;2024-03-08T07:32:37;29.40;;;20.58;;
3299;SDS011;1662;49.310;8.134;2024-03-08T07:35:03;27.00;;;19.93;;
3299;SDS011;1662;49.310;8.134;2024-03-08T07:37:29;30.45;;;18.63;;
3299;SDS011;1662;49.310;8.134;2024-03-08T07:39:56;30.50;;;19.85;;
3299;SDS011;1662;49.310;8.134;2024-03-08T07:42:23;30.23;;;19.02;;
3299;SDS011;1662;49.310;8.134;2024-03-08T07:44:48;28.93;;;19.40;;
3299;SDS011;1662;49.310;8.134;2024-03-08T07:47:17;27.33;;;19.25;;
3299;SDS011;1662;49.310;8.134;2024-03-08T07:49:43;29.30;;;19.80;;
3299;SDS011;1662;49.310;8.134;2024-03-08T07:52:09;33.03;;;21.60;;
3299;SDS011;1662;49.310;8.134;2024-03-08T07:54:40;28.80;;;20.20;;
3299;SDS011;1662;49.310;8.134;2024-03-08T07:57:06;28.20;;;19.70;;
3299;SDS011;1662;49.310;8.134;2024-03-08T07:59:32;25.08;;;18.63;;
3299;SDS011;1662;49.310;8.134;2024-03-08T08:01:58;31.73;;;20.87;;
3299;SDS011;1662;49.310;8.134;2024-03-08T08:04:24;30.83;;;21.83;;
3299;SDS011;1662;49.310;8.134;2024-03-08T08:06:52;26.88;;;21.00;;
3299;SDS011;1662;49.310;8.134;2024-03-08T08:09:20;27.58;;;20.50;;
3299;SDS011;1662;49.310;8.134;2024-03-08T08:11:59;31.90;;;21.17;;
3299;SDS011;1662;49.310;8.134;2024-03-08T08:14:27;28.10;;;19.83;;
3299;SDS011;1662;49.310;8.134;2024-03-08T08:16:56;29.55;;;20.67;;
3299;SDS011;1662;49.310;8.134;2024-03-08T08:19:23;27.33;;;18.80;;
3299;SDS011;1662;49.310;8.134;2024-03-08T08:21:51;29.60;;;19.98;;
3299;SDS011;1662;49.310;8.134;2024-03-08T08:24:19;32.28;;;20.60;;
3299;SDS011;1662;49.310;8.134;2024-03-08T08:26:46;27.67;;;19.20;;
3299;SDS011;1662;49.310;8.134;2024-03-08T08:29:15;28.30;;;20.33;;
3299;SDS011;1662;49.310;8.134;2024-03-08T08:31:41;29.40;;;20.23;;
3299;SDS011;1662;49.310;8.134;2024-03-08T08:34:08;30.33;;;19.15;;
3299;SDS011;1662;49.310;8.134;2024-03-08T08:36:37;28.45;;;20.52;;
3299;SDS011;1662;49.310;8.134;2024-03-08T08:39:04;29.02;;;19.80;;
3299;SDS011;1662;49.310;8.134;2024-03-08T08:41:30;29.13;;;20.25;;
3299;SDS011;1662;49.310;8.134;2024-03-08T08:43:56;28.43;;;20.07;;
3299;SDS011;1662;49.310;8.134;2024-03-08T08:46:22;28.03;;;21.40;;
3299;SDS011;1662;49.310;8.134;2024-03-08T08:48:48;29.60;;;20.80;;
3299;SDS011;1662;49.310;8.134;2024-03-08T08:51:16;29.15;;;20.85;;
3299;SDS011;1662;49.310;8.134;2024-03-08T08:53:41;28.83;;;20.33;;
3299;SDS011;1662;49.310;8.134;2024-03-08T08:56:08;29.00;;;20.17;;
3299;SDS011;1662;49.310;8.134;2024-03-08T08:58:34;27.48;;;20.33;;
3299;SDS011;1662;49.310;8.134;2024-03-08T09:01:00;26.00;;;18.63;;
3299;SDS011;1662;49.310;8.134;2024-03-08T09:03:26;27.48;;;20.55;;
3299;SDS011;1662;49.310;8.134;2024-03-08T09:05:54;27.85;;;21.15;;
3299;SDS011;1662;49.310;8.134;2024-03-08T09:08:21;23.83;;;19.50;;
3299;SDS011;1662;49.310;8.134;2024-03-08T09:10:47;30.27;;;21.40;;
3299;SDS011;1662;49.310;8.134;2024-03-08T09:13:13;28.23;;;19.87;;
3299;SDS011;1662;49.310;8.134;2024-03-08T09:15:41;28.55;;;20.00;;
3299;SDS011;1662;49.310;8.134;2024-03-08T09:18:07;29.93;;;21.30;;
3299;SDS011;1662;49.310;8.134;2024-03-08T09:20:34;27.00;;;19.60;;
3299;SDS011;1662;49.310;8.134;2024-03-08T09:23:00;30.73;;;20.70;;
3299;SDS011;1662;49.310;8.134;2024-03-08T09:25:25;24.77;;;19.43;;
3299;SDS011;1662;49.310;8.134;2024-03-08T09:27:51;27.10;;;20.27;;
3299;SDS011;1662;49.310;8.134;2024-03-08T09:30:17;25.10;;;19.07;;
3299;SDS011;1662;49.310;8.134;2024-03-08T09:32:43;27.37;;;20.10;;
3299;SDS011;1662;49.310;8.134;2024-03-08T09:35:11;28.97;;;20.47;;
3299;SDS011;1662;49.310;8.134;2024-03-08T09:37:37;26.03;;;19.00;;
3299;SDS011;1662;49.310;8.134;2024-03-08T09:40:03;28.53;;;19.50;;
3299;SDS011;1662;49.310;8.134;2024-03-08T09:42:34;26.17;;;18.40;;
3299;SDS011;1662;49.310;8.134;2024-03-08T09:45:10;27.90;;;19.37;;
3299;SDS011;1662;49.310;8.134;2024-03-08T09:47:39;24.50;;;18.83;;
3299;SDS011;1662;49.310;8.134;2024-03-08T09:50:08;25.27;;;19.07;;
3299;SDS011;1662;49.310;8.134;2024-03-08T09:52:40;27.90;;;19.00;;
3299;SDS011;1662;49.310;8.134;2024-03-08T09:55:10;23.30;;;17.17;;
3299;SDS011;1662;49.310;8.134;2024-03-08T09:57:41;27.57;;;21.43;;
3299;SDS011;1662;49.310;8.134;2024-03-08T10:00:31;28.30;;;19.03;;
3299;SDS011;1662;49.310;8.134;2024-03-08T10:03:00;30.93;;;19.40;;
3299;SDS011;1662;49.310;8.134;2024-03-08T10:05:26;31.07;;;21.37;;
3299;SDS011;1662;49.310;8.134;2024-03-08T10:07:52;27.50;;;20.10;;
3299;SDS011;1662;49.310;8.134;2024-03-08T10:10:18;30.00;;;20.73;;
3299;SDS011;1662;49.310;8.134;2024-03-08T10:12:44;23.03;;;17.23;;
3299;SDS011;1662;49.310;8.134;2024-03-08T10:15:11;23.90;;;17.57;;
3299;SDS011;1662;49.310;8.134;2024-03-08T10:17:37;26.87;;;20.73;;
3299;SDS011;1662;49.310;8.134;2024-03-08T10:20:14;30.10;;;21.33;;
3299;SDS011;1662;49.310;8.134;2024-03-08T10:22:42;26.87;;;19.43;;
3299;SDS011;1662;49.310;8.134;2024-03-08T10:25:11;29.20;;;20.33;;
3299;SDS011;1662;49.310;8.134;2024-03-08T10:27:38;25.17;;;18.80;;
3299;SDS011;1662;49.310;8.134;2024-03-08T10:30:12;25.43;;;18.60;;
3299;SDS011;1662;49.310;8.134;2024-03-08T10:32:40;25.60;;;19.38;;
3299;SDS011;1662;49.310;8.134;2024-03-08T10:35:06;27.57;;;20.57;;
3299;SDS011;1662;49.310;8.134;2024-03-08T10:37:41;28.60;;;20.27;;
3299;SDS011;1662;49.310;8.134;2024-03-08T10:40:13;24.33;;;18.20;;
3299;SDS011;1662;49.310;8.134;2024-03-08T10:42:52;24.93;;;19.13;;
3299;SDS011;1662;49.310;8.134;2024-03-08T10:50:53;32.13;;;21.30;;
3299;SDS011;1662;49.310;8.134;2024-03-08T10:53:19;27.37;;;20.47;;
3299;SDS011;1662;49.310;8.134;2024-03-08T10:55:46;31.37;;;19.90;;
3299;SDS011;1662;49.310;8.134;2024-03-08T10:58:12;25.37;;;19.70;;
3299;SDS011;1662;49.310;8.134;2024-03-08T11:00:38;29.93;;;21.33;;
3299;SDS011;1662;49.310;8.134;2024-03-08T11:03:04;28.70;;;20.40;;
3299;SDS011;1662;49.310;8.134;2024-03-08T11:05:39;26.40;;;19.73;;
3299;SDS011;1662;49.310;8.134;2024-03-08T11:10:47;23.43;;;17.83;;
3299;SDS011;1662;49.310;8.134;2024-03-08T11:13:35;29.00;;;19.70;;
3299;SDS011;1662;49.310;8.134;2024-03-08T11:16:12;26.13;;;19.17;;
3299;SDS011;1662;49.310;8.134;2024-03-08T11:18:50;27.90;;;20.20;;
3299;SDS011;1662;49.310;8.134;2024-03-08T11:21:19;25.57;;;19.30;;
3299;SDS011;1662;49.310;8.134;2024-03-08T11:23:58;27.53;;;18.80;;
3299;SDS011;1662;49.310;8.134;2024-03-08T11:26:25;26.80;;;20.33;;
3299;SDS011;1662;49.310;8.134;2024-03-08T11:28:50;24.73;;;19.90;;
3299;SDS011;1662;49.310;8.134;2024-03-08T11:33:46;27.03;;;19.33;;
3299;SDS011;1662;49.310;8.134;2024-03-08T11:36:20;29.03;;;21.13;;
3299;SDS011;1662;49.310;8.134;2024-03-08T11:38:49;23.67;;;19.43;;
3299;SDS011;1662;49.310;8.134;2024-03-08T11:41:18;23.47;;;18.80;;
3299;SDS011;1662;49.310;8.134;2024-03-08T11:43:47;27.27;;;19.33;;
3299;SDS011;1662;49.310;8.134;2024-03-08T11:46:16;26.40;;;19.27;;
3299;SDS011;1662;49.310;8.134;2024-03-08T11:48:43;24.90;;;17.93;;
3299;SDS011;1662;49.310;8.134;2024-03-08T11:51:12;27.20;;;19.70;;
3299;SDS011;1662;49.310;8.134;2024-03-08T11:53:39;23.70;;;17.90;;
3299;SDS011;1662;49.310;8.134;2024-03-08T11:56:09;26.13;;;19.03;;
3299;SDS011;1662;49.310;8.134;2024-03-08T11:58:37;27.87;;;20.40;;
3299;SDS011;1662;49.310;8.134;2024-03-08T12:01:07;26.63;;;19.70;;
3299;SDS011;1662;49.310;8.134;2024-03-08T12:03:42;22.40;;;18.00;;
3299;SDS011;1662;49.310;8.134;2024-03-08T12:06:08;27.10;;;20.57;;
3299;SDS011;1662;49.310;8.134;2024-03-08T12:08:37;23.20;;;18.27;;
3299;SDS011;1662;49.310;8.134;2024-03-08T12:11:05;24.20;;;18.57;;
3299;SDS011;1662;49.310;8.134;2024-03-08T12:13:31;27.67;;;19.97;;
3299;SDS011;1662;49.310;8.134;2024-03-08T12:15:59;25.43;;;19.10;;
3299;SDS011;1662;49.310;8.134;2024-03-08T12:18:32;26.97;;;18.87;;
3299;SDS011;1662;49.310;8.134;2024-03-08T12:21:11;24.33;;;20.03;;
3299;SDS011;1662;49.310;8.134;2024-03-08T12:23:44;23.67;;;16.67;;
3299;SDS011;1662;49.310;8.134;2024-03-08T12:28:40;25.73;;;18.17;;
3299;SDS011;1662;49.310;8.134;2024-03-08T12:31:07;23.40;;;15.73;;
3299;SDS011;1662;49.310;8.134;2024-03-08T12:33:37;19.60;;;16.10;;
3299;SDS011;1662;49.310;8.134;2024-03-08T12:36:15;29.13;;;18.33;;
3299;SDS011;1662;49.310;8.134;2024-03-08T12:38:48;23.47;;;16.10;;
3299;SDS011;1662;49.310;8.134;2024-03-08T12:41:19;28.23;;;19.27;;
3299;SDS011;1662;49.310;8.134;2024-03-08T12:43:46;27.40;;;17.33;;
3299;SDS011;1662;49.310;8.134;2024-03-08T12:46:16;23.90;;;16.60;;
3299;SDS011;1662;49.310;8.134;2024-03-08T12:48:46;24.10;;;15.93;;
3299;SDS011;1662;49.310;8.134;2024-03-08T12:51:15;22.63;;;16.57;;
3299;SDS011;1662;49.310;8.134;2024-03-08T12:53:43;25.90;;;17.50;;
3299;SDS011;1662;49.310;8.134;2024-03-08T12:56:09;24.53;;;16.40;;
3299;SDS011;1662;49.310;8.134;2024-03-08T12:58:36;21.47;;;16.60;;
3299;SDS011;1662;49.310;8.134;2024-03-08T13:01:02;20.33;;;16.30;;
3299;SDS011;1662;49.310;8.134;2024-03-08T13:03:34;22.90;;;18.30;;
3299;SDS011;1662;49.310;8.134;2024-03-08T13:06:01;20.33;;;15.30;;
3299;SDS011;1662;49.310;8.134;2024-03-08T13:08:33;20.40;;;16.50;;
3299;SDS011;1662;49.310;8.134;2024-03-08T13:11:06;20.73;;;15.93;;
3299;SDS011;1662;49.310;8.134;2024-03-08T13:13:40;20.57;;;15.93;;
3299;SDS011;1662;49.310;8.134;2024-03-08T13:16:06;23.63;;;15.90;;
3299;SDS011;1662;49.310;8.134;2024-03-08T13:18:33;23.10;;;17.00;;
3299;SDS011;1662;49.310;8.134;2024-03-08T13:21:00;18.73;;;15.13;;
3299;SDS011;1662;49.310;8.134;2024-03-08T13:23:30;24.40;;;16.97;;
3299;SDS011;1662;49.310;8.134;2024-03-08T13:25:55;21.90;;;15.53;;
3299;SDS011;1662;49.310;8.134;2024-03-08T13:28:24;23.50;;;17.77;;
3299;SDS011;1662;49.310;8.134;2024-03-08T13:30:54;24.40;;;16.80;;
3299;SDS011;1662;49.310;8.134;2024-03-08T13:33:23;23.07;;;16.40;;
3299;SDS011;1662;49.310;8.134;2024-03-08T13:35:49;24.63;;;16.73;;
3299;SDS011;1662;49.310;8.134;2024-03-08T13:38:16;20.40;;;16.03;;
3299;SDS011;1662;49.310;8.134;2024-03-08T13:40:43;24.40;;;17.60;;
3299;SDS011;1662;49.310;8.134;2024-03-08T13:43:08;25.50;;;18.47;;
3299;SDS011;1662;49.310;8.134;2024-03-08T13:45:34;20.67;;;16.83;;
3299;SDS011;1662;49.310;8.134;2024-03-08T13:48:03;23.60;;;17.33;;
3299;SDS011;1662;49.310;8.134;2024-03-08T13:50:29;22.70;;;18.17;;
3299;SDS011;1662;49.310;8.134;2024-03-08T13:52:55;21.77;;;17.67;;
3299;SDS011;1662;49.310;8.134;2024-03-08T13:55:21;22.67;;;17.50;;
3299;SDS011;1662;49.310;8.134;2024-03-08T13:57:48;18.83;;;16.37;;
3299;SDS011;1662;49.310;8.134;2024-03-08T14:00:14;21.97;;;16.37;;
3299;SDS011;1662;49.310;8.134;2024-03-08T14:02:40;21.77;;;17.60;;
3299;SDS011;1662;49.310;8.134;2024-03-08T14:05:06;23.03;;;17.20;;
3299;SDS011;1662;49.310;8.134;2024-03-08T14:07:34;18.77;;;15.73;;
3299;SDS011;1662;49.310;8.134;2024-03-08T14:10:00;20.03;;;16.13;;
3299;SDS011;1662;49.310;8.134;2024-03-08T14:12:26;17.80;;;15.90;;
3299;SDS011;1662;49.310;8.134;2024-03-08T14:14:54;24.60;;;18.53;;
3299;SDS011;1662;49.310;8.134;2024-03-08T14:17:20;24.70;;;18.70;;
3299;SDS011;1662;49.310;8.134;2024-03-08T14:19:46;21.20;;;16.73;;
3299;SDS011;1662;49.310;8.134;2024-03-08T14:22:12;21.20;;;18.03;;
3299;SDS011;1662;49.310;8.134;2024-03-08T14:24:39;20.87;;;17.10;;
3299;SDS011;1662;49.310;8.134;2024-03-08T14:27:07;22.83;;;17.17;;
3299;SDS011;1662;49.310;8.134;2024-03-08T14:29:34;21.07;;;18.13;;
3299;SDS011;1662;49.310;8.134;2024-03-08T14:32:00;24.80;;;19.57;;
3299;SDS011;1662;49.310;8.134;2024-03-08T14:34:28;21.27;;;18.30;;
3299;SDS011;1662;49.310;8.134;2024-03-08T14:36:55;20.30;;;17.70;;
3299;SDS011;1662;49.310;8.134;2024-03-08T14:39:21;25.33;;;19.40;;
3299;SDS011;1662;49.310;8.134;2024-03-08T14:41:51;24.60;;;19.30;;
3299;SDS011;1662;49.310;8.134;2024-03-08T14:44:19;23.30;;;19.87;;
3299;SDS011;1662;49.310;8.134;2024-03-08T14:46:45;23.00;;;18.83;;
3299;SDS011;1662;49.310;8.134;2024-03-08T14:49:11;25.07;;;20.13;;
3299;SDS011;1662;49.310;8.134;2024-03-08T14:51:37;24.77;;;18.90;;
3299;SDS011;1662;49.310;8.134;2024-03-08T14:54:03;21.27;;;18.03;;
3299;SDS011;1662;49.310;8.134;2024-03-08T14:56:31;23.13;;;19.40;;
3299;SDS011;1662;49.310;8.134;2024-03-08T14:58:58;21.33;;;19.00;;
3299;SDS011;1662;49.310;8.134;2024-03-08T15:01:26;24.70;;;19.60;;
3299;SDS011;1662;49.310;8.134;2024-03-08T15:03:54;23.60;;;20.40;;
3299;SDS011;1662;49.310;8.134;2024-03-08T15:06:22;20.63;;;18.40;;